createdAt,value
2022-12-03T00:20:01.207Z,9.303755
2022-12-03T00:21:01.209Z,9.303755
2022-12-03T00:22:03.262Z,9.303755
2022-12-03T00:23:01.207Z,9.303755
2022-12-03T00:24:01.147Z,9.303755
2022-12-03T00:25:01.132Z,9.302952
2022-12-03T00:26:01.188Z,9.302875
2022-12-03T00:27:01.098Z,9.302839
2022-12-03T00:28:01.482Z,9.302839
2022-12-03T00:29:02.073Z,9.303501
2022-12-03T00:30:01.103Z,9.303016
2022-12-03T00:31:01.243Z,9.303036
2022-12-03T00:32:01.116Z,9.303033
2022-12-03T00:33:01.120Z,9.303088
2022-12-03T00:34:01.064Z,9.303101
2022-12-03T00:35:01.080Z,9.303090
2022-12-03T00:36:01.035Z,9.303201
2022-12-03T00:37:01.068Z,9.303308
2022-12-03T00:38:00.974Z,9.303267
2022-12-03T00:39:01.043Z,9.303101
2022-12-03T00:40:01.000Z,9.303068
2022-12-03T00:41:01.033Z,9.303203
2022-12-03T00:42:01.014Z,9.303082
2022-12-03T00:43:01.185Z,9.303086
2022-12-03T00:44:01.153Z,9.303066
2022-12-03T00:45:00.940Z,9.303090
2022-12-03T00:46:01.036Z,9.302981
2022-12-03T00:47:01.105Z,9.303008
2022-12-03T00:48:01.980Z,9.303009
2022-12-03T00:49:00.952Z,9.303011
2022-12-03T00:50:00.957Z,9.303065
2022-12-03T00:51:00.965Z,9.303106
2022-12-03T00:52:00.904Z,9.303053
2022-12-03T00:53:02.060Z,9.303021
2022-12-03T00:54:00.935Z,9.303032
2022-12-03T00:55:02.414Z,9.302938
2022-12-03T00:56:00.907Z,9.303132
2022-12-03T00:57:00.813Z,9.303046
2022-12-03T00:58:01.941Z,9.303101
2022-12-03T00:59:01.123Z,9.303160
2022-12-03T01:00:00.786Z,9.302970
2022-12-03T01:01:01.119Z,9.303016
2022-12-03T01:02:00.872Z,9.302882
2022-12-03T01:03:01.278Z,9.302979
2022-12-03T01:04:01.025Z,9.303015
2022-12-03T01:05:00.808Z,9.303067
2022-12-03T01:06:01.151Z,9.303139
2022-12-03T01:07:01.547Z,9.303054
2022-12-03T01:08:00.897Z,9.303002
2022-12-03T01:09:00.783Z,9.303021
2022-12-03T01:10:01.219Z,9.303084
2022-12-03T01:11:00.918Z,9.303125
2022-12-03T01:12:00.762Z,9.303016
2022-12-03T01:13:00.746Z,9.303054
2022-12-03T01:14:01.326Z,9.303054
2022-12-03T01:15:01.456Z,9.303006
2022-12-03T01:16:02.116Z,9.302993
2022-12-03T01:17:00.632Z,9.302933
2022-12-03T01:18:00.626Z,9.302897
2022-12-03T01:19:00.699Z,9.302999
2022-12-03T01:20:00.790Z,9.303040
2022-12-03T01:21:00.648Z,9.302934
2022-12-03T01:22:00.558Z,9.302852
2022-12-03T01:23:00.600Z,9.302805
2022-12-03T01:24:00.642Z,9.302994
2022-12-03T01:25:00.673Z,9.302961
2022-12-03T01:26:00.663Z,9.303052
2022-12-03T01:27:00.603Z,9.302952
2022-12-03T01:28:00.527Z,9.302908
2022-12-03T01:29:00.534Z,9.302854
2022-12-03T01:30:00.581Z,9.302959
2022-12-03T01:31:00.623Z,9.302822
2022-12-03T01:32:00.570Z,9.302894
2022-12-03T01:33:00.487Z,9.302851
2022-12-03T01:34:00.486Z,9.302815
2022-12-03T01:35:00.446Z,9.302822
2022-12-03T01:36:00.454Z,9.302773
2022-12-03T01:37:00.624Z,9.302813
2022-12-03T01:38:00.480Z,9.302880
2022-12-03T01:39:00.784Z,9.302830
2022-12-03T01:40:00.777Z,9.302879
2022-12-03T01:41:00.705Z,9.302950
2022-12-03T01:42:00.438Z,9.302975
2022-12-03T01:43:00.446Z,9.302998
2022-12-03T01:44:00.562Z,9.303014
2022-12-03T01:45:01.572Z,9.302992
2022-12-03T01:46:00.863Z,9.302905
2022-12-03T01:47:00.525Z,9.302937
2022-12-03T01:48:00.331Z,9.302948
2022-12-03T01:49:00.395Z,9.302981
2022-12-03T01:50:00.329Z,9.302979
2022-12-03T01:51:00.328Z,9.302962
2022-12-03T01:52:00.531Z,9.302959
2022-12-03T01:53:00.447Z,9.302898
2022-12-03T01:54:00.411Z,9.302979
2022-12-03T01:55:00.452Z,9.302872
2022-12-03T01:56:00.552Z,9.302947
2022-12-03T01:57:00.819Z,9.302927
2022-12-03T01:58:00.496Z,9.303016
2022-12-03T01:59:00.794Z,9.302988
2022-12-03T02:00:00.695Z,9.302911
2022-12-03T02:01:01.252Z,9.302958
2022-12-03T02:02:00.434Z,9.302834
2022-12-03T02:03:00.196Z,9.302876
2022-12-03T02:04:00.807Z,9.302970
2022-12-03T02:05:00.135Z,9.302989
2022-12-03T02:06:00.188Z,9.303018
2022-12-03T02:07:00.112Z,9.302957
2022-12-03T02:08:00.389Z,9.303057
2022-12-03T02:09:00.219Z,9.303038
2022-12-03T02:10:00.358Z,9.302950
2022-12-03T02:11:00.078Z,9.302987
2022-12-03T02:12:00.119Z,9.303036
2022-12-03T02:13:00.551Z,9.302847
2022-12-03T02:14:00.296Z,9.302940
2022-12-03T02:15:00.373Z,9.302941
2022-12-03T02:16:04.336Z,9.302942
2022-12-03T02:17:00.521Z,9.302890
2022-12-03T02:18:01.028Z,9.302902
2022-12-03T02:19:01.859Z,9.302899
2022-12-03T02:20:01.571Z,9.303018
2022-12-03T02:21:00.084Z,9.303040
2022-12-03T02:22:00.097Z,9.303030
2022-12-03T02:23:00.161Z,9.303082
2022-12-03T02:24:00.135Z,9.303023
2022-12-03T02:25:00.917Z,9.303085
2022-12-03T02:26:00.011Z,9.302989
2022-12-03T02:27:00.094Z,9.303071
2022-12-03T02:28:00.040Z,9.302990
2022-12-03T02:29:00.069Z,9.303093
2022-12-03T02:29:59.935Z,9.302926
2022-12-03T02:31:00.378Z,9.302821
2022-12-03T02:32:00.289Z,9.302973
2022-12-03T02:33:00.242Z,9.302875
2022-12-03T02:33:59.921Z,9.302769
2022-12-03T02:35:32.414Z,9.302764
2022-12-03T02:36:03.877Z,9.302912
2022-12-03T02:36:59.879Z,9.302919
2022-12-03T02:38:00.805Z,9.302981
2022-12-03T02:38:59.833Z,9.302992
2022-12-03T02:40:00.458Z,9.303035
2022-12-03T02:40:59.982Z,9.302950
2022-12-03T02:41:59.847Z,9.302921
2022-12-03T02:43:00.828Z,9.302931
2022-12-03T02:43:59.827Z,9.302940
2022-12-03T02:45:04.859Z,9.303098
2022-12-03T02:46:01.854Z,9.303042
2022-12-03T02:47:00.509Z,9.303082
2022-12-03T02:47:59.744Z,9.302902
2022-12-03T02:49:00.619Z,9.302965
2022-12-03T02:49:59.751Z,9.303046
2022-12-03T02:51:00.179Z,9.302837
2022-12-03T02:51:59.841Z,9.302958
2022-12-03T02:52:59.808Z,9.303044
2022-12-03T02:53:59.969Z,9.303048
2022-12-03T02:54:59.719Z,9.302891
2022-12-03T02:55:59.707Z,9.302942
2022-12-03T02:56:59.697Z,9.302768
2022-12-03T02:57:59.895Z,9.302808
2022-12-03T02:58:59.966Z,9.302847
2022-12-03T02:59:59.627Z,9.302802
2022-12-03T03:00:59.835Z,9.302977
2022-12-03T03:02:00.717Z,9.303037
2022-12-03T03:02:59.780Z,9.303076
2022-12-03T03:03:59.767Z,9.302998
2022-12-03T03:05:00.419Z,9.303083
2022-12-03T03:05:59.562Z,9.302938
2022-12-03T03:07:00.658Z,9.302924
2022-12-03T03:08:00.330Z,9.302900
2022-12-03T03:08:59.786Z,9.303013
2022-12-03T03:09:59.665Z,9.303108
2022-12-03T03:11:00.874Z,9.303113
2022-12-03T03:12:00.352Z,9.303007
2022-12-03T03:12:59.486Z,9.302938
2022-12-03T03:13:59.498Z,9.303022
2022-12-03T03:14:59.559Z,9.303127
2022-12-03T03:15:59.572Z,9.303123
2022-12-03T03:16:59.477Z,9.303084
2022-12-03T03:18:02.082Z,9.302953
2022-12-03T03:18:59.472Z,9.302878
2022-12-03T03:19:59.486Z,9.302988
2022-12-03T03:20:59.396Z,9.302963
2022-12-03T03:21:59.399Z,9.302948
2022-12-03T03:22:59.455Z,9.302946
2022-12-03T03:23:59.437Z,9.303012
2022-12-03T03:24:59.399Z,9.302972
2022-12-03T03:25:59.383Z,9.303007
2022-12-03T03:26:59.433Z,9.302982
2022-12-03T03:27:59.337Z,9.303042
2022-12-03T03:28:59.333Z,9.302932
2022-12-03T03:29:59.407Z,9.302926
2022-12-03T03:30:59.426Z,9.302862
2022-12-03T03:31:59.345Z,9.303018
2022-12-03T03:54:28.098Z,9.303040
2022-12-03T03:55:27.968Z,9.302951
2022-12-03T03:56:28.061Z,9.303132
2022-12-03T03:57:27.944Z,9.302578
2022-12-03T03:58:27.985Z,9.302976
2022-12-03T03:59:27.989Z,9.302861
2022-12-03T04:00:27.988Z,9.302878
2022-12-03T04:01:28.003Z,9.302922
2022-12-03T04:02:27.942Z,9.303045
2022-12-03T04:03:28.094Z,9.302910
2022-12-03T04:04:27.978Z,9.302995
2022-12-03T04:05:27.929Z,9.303028
2022-12-03T04:06:27.947Z,9.303115
2022-12-03T04:07:27.969Z,9.303029
2022-12-03T04:08:27.892Z,9.302856
2022-12-03T04:09:27.997Z,9.302869
2022-12-03T04:10:27.820Z,9.302919
2022-12-03T04:11:27.886Z,9.303072
2022-12-03T04:12:27.974Z,9.302771
2022-12-03T04:13:27.816Z,9.302528
2022-12-03T04:14:27.910Z,9.303341
2022-12-03T04:15:27.800Z,9.303184
2022-12-03T04:16:27.894Z,9.303113
2022-12-03T04:17:27.780Z,9.303012
2022-12-03T04:18:27.936Z,9.303529
2022-12-03T04:19:27.823Z,9.303119
2022-12-03T04:20:27.781Z,9.302932
2022-12-03T04:21:27.711Z,9.303047
2022-12-03T04:22:27.754Z,9.303117
2022-12-03T04:23:30.859Z,9.302900
2022-12-03T04:24:28.825Z,9.302945
2022-12-03T04:25:27.789Z,9.302946
2022-12-03T04:26:27.715Z,9.303107
2022-12-03T04:27:27.765Z,9.303099
2022-12-03T04:28:27.704Z,9.303038
2022-12-03T04:29:27.741Z,9.302901
2022-12-03T04:30:27.766Z,9.302896
2022-12-03T04:31:27.668Z,9.303017
2022-12-03T04:32:27.633Z,9.302833
2022-12-03T04:33:27.651Z,9.303002
2022-12-03T04:34:27.737Z,9.303273
2022-12-03T04:35:27.762Z,9.303008
2022-12-03T04:36:27.661Z,9.303008
2022-12-03T04:37:27.636Z,9.303156
2022-12-03T04:38:27.554Z,9.303179
2022-12-03T04:39:27.592Z,9.303132
2022-12-03T04:40:27.647Z,9.303061
2022-12-03T04:41:27.567Z,9.302988
2022-12-03T04:42:27.667Z,9.303249
2022-12-03T04:43:27.530Z,9.303125
2022-12-03T04:44:27.637Z,9.303029
2022-12-03T04:45:27.606Z,9.303085
2022-12-03T04:46:27.567Z,9.303102
2022-12-03T04:47:27.516Z,9.302956
2022-12-03T04:48:27.567Z,9.302869
2022-12-03T04:49:27.577Z,9.303142
2022-12-03T04:50:27.466Z,9.302878
2022-12-03T04:51:27.456Z,9.302785
2022-12-03T04:52:27.619Z,9.302999
2022-12-03T04:53:27.458Z,9.302906
2022-12-03T04:54:27.517Z,9.302916
2022-12-03T04:55:27.468Z,9.302917
2022-12-03T04:56:27.390Z,9.302922
2022-12-03T04:57:27.395Z,9.302939
2022-12-03T04:58:27.399Z,9.302978
2022-12-03T04:59:27.445Z,9.302995
2022-12-03T05:00:27.354Z,9.302988
2022-12-03T05:01:27.471Z,9.302793
2022-12-03T05:02:27.512Z,9.302762
2022-12-03T05:03:27.316Z,9.302657
2022-12-03T05:04:27.368Z,9.302719
2022-12-03T05:05:27.400Z,9.302802
2022-12-03T05:06:27.359Z,9.303021
2022-12-03T05:07:27.327Z,9.302960
2022-12-03T05:08:27.297Z,9.302999
2022-12-03T05:09:27.274Z,9.302988
2022-12-03T05:10:27.279Z,9.303070
2022-12-03T05:11:27.228Z,9.302888
2022-12-03T05:12:27.224Z,9.302939
2022-12-03T05:13:27.209Z,9.302915
2022-12-03T05:14:27.363Z,9.302919
2022-12-03T05:15:27.288Z,9.302980
2022-12-03T05:16:27.209Z,9.303007
2022-12-03T05:17:27.242Z,9.302949
2022-12-03T05:18:27.220Z,9.303056
2022-12-03T05:19:27.230Z,9.302998
2022-12-03T05:20:27.182Z,9.303102
2022-12-03T05:21:27.196Z,9.303142
2022-12-03T05:22:27.155Z,9.303186
2022-12-03T05:23:27.251Z,9.303069
2022-12-03T05:24:27.181Z,9.302966
2022-12-03T05:25:27.131Z,9.303086
2022-12-03T05:26:27.097Z,9.303102
2022-12-03T05:27:27.265Z,9.303050
2022-12-03T05:28:27.040Z,9.303004
2022-12-03T05:29:27.065Z,9.302993
2022-12-03T05:30:27.162Z,9.303050
2022-12-03T05:31:27.261Z,9.303044
2022-12-03T05:32:27.039Z,9.302939
2022-12-03T05:33:27.029Z,9.302909
2022-12-03T05:34:27.004Z,9.302949
2022-12-03T05:35:27.175Z,9.302987
2022-12-03T05:36:27.006Z,9.302966
2022-12-03T05:37:27.037Z,9.303065
2022-12-03T05:38:26.980Z,9.303091
2022-12-03T05:39:26.968Z,9.303126
2022-12-03T05:40:27.028Z,9.302962
2022-12-03T05:41:27.029Z,9.302919
2022-12-03T05:42:26.930Z,9.302993
2022-12-03T05:43:26.947Z,9.303097
2022-12-03T05:44:26.908Z,9.302928
2022-12-03T05:45:26.916Z,9.302906
2022-12-03T05:46:26.979Z,9.302999
2022-12-03T05:47:26.967Z,9.302963
2022-12-03T05:48:26.885Z,9.302973
2022-12-03T05:49:26.932Z,9.303012
2022-12-03T05:50:26.939Z,9.303031
2022-12-03T05:51:26.949Z,9.303148
2022-12-03T05:52:26.852Z,9.303006
2022-12-03T05:53:26.845Z,9.302881
2022-12-03T05:54:26.880Z,9.302864
2022-12-03T05:55:26.845Z,9.302866
2022-12-03T05:56:26.818Z,9.302958
2022-12-03T05:57:26.786Z,9.303036
2022-12-03T05:58:26.786Z,9.302981
2022-12-03T05:59:26.770Z,9.302987
2022-12-03T06:00:26.766Z,9.302921
2022-12-03T06:01:27.788Z,9.303046
2022-12-03T06:02:26.794Z,9.303039
2022-12-03T06:03:26.849Z,9.303020
2022-12-03T06:04:26.751Z,9.302875
2022-12-03T06:05:26.738Z,9.302952
2022-12-03T06:06:26.744Z,9.302829
2022-12-03T06:07:26.729Z,9.303157
2022-12-03T06:08:26.703Z,9.303099
2022-12-03T06:09:26.665Z,9.302907
2022-12-03T06:10:26.634Z,9.302909
2022-12-03T06:11:26.637Z,9.303051
2022-12-03T06:12:26.622Z,9.303045
2022-12-03T06:13:26.693Z,9.303162
2022-12-03T06:14:26.647Z,9.303086
2022-12-03T06:15:26.674Z,9.302954
2022-12-03T06:16:26.589Z,9.302947
2022-12-03T06:17:26.615Z,9.302907
2022-12-03T06:18:26.562Z,9.303106
2022-12-03T06:19:26.658Z,9.302981
2022-12-03T06:20:26.604Z,9.302960
2022-12-03T06:21:26.548Z,9.303047
2022-12-03T06:22:26.574Z,9.303019
2022-12-03T06:23:26.585Z,9.303021
2022-12-03T06:24:26.515Z,9.303075
2022-12-03T06:25:26.554Z,9.303061
2022-12-03T06:26:26.595Z,9.303035
2022-12-03T06:27:26.524Z,9.302972
2022-12-03T06:28:26.526Z,9.303040
2022-12-03T06:29:26.478Z,9.303013
2022-12-03T06:30:26.504Z,9.302958
2022-12-03T06:31:26.505Z,9.302909
2022-12-03T06:32:26.520Z,9.303004
2022-12-03T06:33:26.443Z,9.303045
2022-12-03T06:34:26.484Z,9.302979
2022-12-03T06:35:26.415Z,9.302917
2022-12-03T06:36:26.461Z,9.302958
2022-12-03T06:37:26.429Z,9.302962
2022-12-03T06:38:26.553Z,9.303009
2022-12-03T06:39:26.380Z,9.302982
2022-12-03T06:40:26.478Z,9.302960
2022-12-03T06:41:26.389Z,9.302953
2022-12-03T06:42:26.396Z,9.302993
2022-12-03T06:43:26.368Z,9.302960
2022-12-03T06:44:26.402Z,9.302932
2022-12-03T06:45:26.361Z,9.302917
2022-12-03T06:46:26.383Z,9.303061
2022-12-03T06:47:26.401Z,9.302985
2022-12-03T06:48:26.250Z,9.302908
2022-12-03T06:49:26.287Z,9.302922
2022-12-03T06:50:26.300Z,9.302989
2022-12-03T06:51:26.261Z,9.302920
2022-12-03T06:52:26.218Z,9.302934
2022-12-03T06:53:26.274Z,9.303014
2022-12-03T06:54:26.304Z,9.303020
2022-12-03T06:55:26.342Z,9.303052
2022-12-03T06:56:31.065Z,9.302968
2022-12-03T06:57:27.254Z,9.302975
2022-12-03T06:58:26.241Z,9.303109
2022-12-03T06:59:26.233Z,9.303110
2022-12-03T07:00:26.210Z,9.303146
2022-12-03T07:01:26.216Z,9.302960
2022-12-03T07:02:26.192Z,9.302949
2022-12-03T07:03:26.249Z,9.302940
2022-12-03T07:04:26.123Z,9.302924
2022-12-03T07:05:26.205Z,9.303025
2022-12-03T07:06:26.278Z,9.302977
2022-12-03T07:07:26.168Z,9.302992
2022-12-03T07:08:26.214Z,9.302913
2022-12-03T07:09:26.083Z,9.302997
2022-12-03T07:10:26.122Z,9.303001
2022-12-03T07:11:26.100Z,9.303056
2022-12-03T07:12:26.072Z,9.302989
2022-12-03T07:13:26.099Z,9.303128
2022-12-03T07:14:26.112Z,9.303058
2022-12-03T07:15:26.108Z,9.302715
2022-12-03T07:16:26.193Z,9.302876
2022-12-03T07:17:26.007Z,9.302876
2022-12-03T07:18:26.051Z,9.302897
2022-12-03T07:19:32.136Z,9.302885
2022-12-03T07:20:28.124Z,9.302723
2022-12-03T07:21:25.942Z,9.302694
2022-12-03T07:22:25.927Z,9.302812
2022-12-03T07:23:26.032Z,9.302958
2022-12-03T07:24:25.921Z,9.302890
2022-12-03T07:25:25.980Z,9.302921
2022-12-03T07:26:25.893Z,9.302885
2022-12-03T07:27:25.978Z,9.302998
2022-12-03T07:28:25.923Z,9.303059
2022-12-03T07:29:25.893Z,9.302840
2022-12-03T07:30:25.922Z,9.302865
2022-12-03T07:31:25.983Z,9.302952
2022-12-03T07:32:25.897Z,9.303014
2022-12-03T07:33:25.837Z,9.303146
2022-12-03T07:34:25.945Z,9.303069
2022-12-03T07:35:25.867Z,9.303081
2022-12-03T07:36:25.800Z,9.303070
2022-12-03T07:37:25.819Z,9.302860
2022-12-03T07:38:25.772Z,9.303038
2022-12-03T07:39:25.849Z,9.303051
2022-12-03T07:40:25.792Z,9.302986
2022-12-03T07:41:25.791Z,9.303086
2022-12-03T07:42:25.776Z,9.303203
2022-12-03T07:43:25.785Z,9.303082
2022-12-03T07:44:25.780Z,9.303079
2022-12-03T07:45:25.741Z,9.302936
2022-12-03T07:46:25.731Z,9.302999
2022-12-03T07:47:25.801Z,9.302966
2022-12-03T07:48:25.731Z,9.303067
2022-12-03T07:49:25.706Z,9.302938
2022-12-03T07:50:25.705Z,9.302940
2022-12-03T07:51:31.817Z,9.302837
2022-12-03T07:52:27.683Z,9.302879
2022-12-03T07:53:25.687Z,9.302872
2022-12-03T07:54:25.658Z,9.303097
2022-12-03T07:55:25.712Z,9.303058
2022-12-03T07:56:25.700Z,9.302950
2022-12-03T07:57:25.691Z,9.302767
2022-12-03T07:58:25.616Z,9.302752
2022-12-03T07:59:25.602Z,9.302876
2022-12-03T08:00:25.585Z,9.302902
2022-12-03T08:01:25.778Z,9.302963
2022-12-03T08:02:25.670Z,9.303121
2022-12-03T08:03:25.593Z,9.303086
2022-12-03T08:04:25.554Z,9.303072
2022-12-03T08:05:25.614Z,9.303226
2022-12-03T08:06:25.548Z,9.303138
2022-12-03T08:07:25.592Z,9.303028
2022-12-03T08:08:25.533Z,9.303068
2022-12-03T08:09:25.514Z,9.303093
2022-12-03T08:10:25.555Z,9.303104
2022-12-03T08:11:25.511Z,9.303061
2022-12-03T08:12:25.511Z,9.303197
2022-12-03T08:13:25.488Z,9.303051
2022-12-03T08:14:25.462Z,9.303017
2022-12-03T08:15:25.447Z,9.302993
2022-12-03T08:16:25.520Z,9.303045
2022-12-03T08:17:25.428Z,9.303144
2022-12-03T08:18:25.448Z,9.303116
2022-12-03T08:19:25.412Z,9.303115
2022-12-03T08:20:25.485Z,9.303111
2022-12-03T08:21:25.590Z,9.302893
2022-12-03T08:22:25.635Z,9.302973
2022-12-03T08:23:25.338Z,9.303139
2022-12-03T08:24:25.416Z,9.303073
2022-12-03T08:25:25.357Z,9.303090
2022-12-03T08:26:25.316Z,9.303082
2022-12-03T08:27:25.399Z,9.303123
2022-12-03T08:28:25.340Z,9.303162
2022-12-03T08:29:25.326Z,9.303082
2022-12-03T08:30:25.353Z,9.303074
2022-12-03T08:31:30.869Z,9.303155
2022-12-03T08:32:27.392Z,9.303222
2022-12-03T08:33:25.228Z,9.303077
2022-12-03T08:34:25.277Z,9.302816
2022-12-03T08:35:25.323Z,9.302752
2022-12-03T08:36:25.273Z,9.302949
2022-12-03T08:37:25.245Z,9.302926
2022-12-03T08:38:25.223Z,9.303014
2022-12-03T08:39:25.184Z,9.302991
2022-12-03T08:40:25.300Z,9.302945
2022-12-03T08:41:25.286Z,9.303003
2022-12-03T08:42:25.190Z,9.302986
2022-12-03T08:43:25.173Z,9.303010
2022-12-03T08:44:25.183Z,9.303067
2022-12-03T08:45:25.178Z,9.302949
2022-12-03T08:46:25.221Z,9.302998
2022-12-03T08:47:25.113Z,9.302930
2022-12-03T08:48:25.113Z,9.302962
2022-12-03T08:49:25.094Z,9.303093
2022-12-03T08:50:25.177Z,9.302953
2022-12-03T08:51:25.178Z,9.303057
2022-12-03T08:52:25.041Z,9.303168
2022-12-03T08:53:25.098Z,9.303083
2022-12-03T08:54:25.135Z,9.303046
2022-12-03T08:55:25.095Z,9.303005
2022-12-03T08:56:25.098Z,9.302992
2022-12-03T08:57:25.018Z,9.303164
2022-12-03T08:58:25.040Z,9.303136
2022-12-03T08:59:25.038Z,9.303040
2022-12-03T09:00:25.013Z,9.303020
2022-12-03T09:01:25.082Z,9.302937
2022-12-03T09:02:25.064Z,9.302932
2022-12-03T09:03:24.987Z,9.302999
2022-12-03T09:04:25.129Z,9.303123
2022-12-03T09:05:24.945Z,9.303004
2022-12-03T09:06:24.942Z,9.302994
2022-12-03T09:07:24.946Z,9.303037
2022-12-03T09:08:24.908Z,9.303084
2022-12-03T09:09:24.877Z,9.303007
2022-12-03T09:10:24.960Z,9.303018
2022-12-03T09:11:24.907Z,9.302946
2022-12-03T09:12:24.870Z,9.302942
2022-12-03T09:13:24.887Z,9.302932
2022-12-03T09:14:24.903Z,9.302855
2022-12-03T09:15:24.896Z,9.302960
2022-12-03T09:16:24.862Z,9.302867
2022-12-03T09:17:24.846Z,9.303009
2022-12-03T09:18:24.868Z,9.303003
2022-12-03T09:29:24.042Z,9.302588
2022-12-03T09:30:38.559Z,9.302840
2022-12-03T09:31:27.916Z,9.302998
2022-12-03T09:32:24.590Z,9.302993
2022-12-03T09:33:25.047Z,9.302895
2022-12-03T09:34:30.025Z,9.303009
2022-12-03T09:35:25.370Z,9.302985
2022-12-03T09:36:25.264Z,9.302878
2022-12-03T09:37:24.011Z,9.302873
2022-12-03T09:38:24.195Z,9.302895
2022-12-03T10:19:33.832Z,9.303329
2022-12-03T10:20:33.938Z,9.303359
2022-12-03T10:21:35.369Z,9.303342
2022-12-03T10:22:35.088Z,9.303160
2022-12-03T10:23:34.316Z,9.303147
2022-12-03T10:24:49.232Z,9.303222
2022-12-03T10:25:34.679Z,9.303295
2022-12-03T10:27:50.542Z,9.303207
2022-12-03T10:28:06.492Z,9.303207
2022-12-03T10:30:18.531Z,9.303197
2022-12-03T10:31:00.749Z,9.303197
2022-12-03T10:34:43.458Z,9.303177
2022-12-03T10:43:04.720Z,9.303133
2022-12-03T10:44:02.554Z,9.303089
2022-12-03T10:44:57.523Z,9.303103
2022-12-03T10:46:03.296Z,9.302942
2022-12-03T10:46:58.181Z,9.302938
2022-12-03T10:47:57.010Z,9.303015
2022-12-03T10:48:58.223Z,9.303049
2022-12-03T10:49:56.934Z,9.303046
2022-12-03T10:50:56.970Z,9.303061
2022-12-03T10:51:56.920Z,9.302896
2022-12-03T10:52:57.000Z,9.302876
2022-12-03T10:53:57.004Z,9.303050
2022-12-03T10:54:57.067Z,9.303011
2022-12-03T10:55:57.519Z,9.303046
2022-12-03T10:56:57.128Z,9.303072
2022-12-03T10:57:57.562Z,9.303049
2022-12-03T10:58:56.780Z,9.302988
2022-12-03T10:59:57.922Z,9.303082
2022-12-03T11:00:56.854Z,9.303094
2022-12-03T11:01:56.895Z,9.303132
2022-12-03T11:02:57.456Z,9.303029
2022-12-03T11:03:57.895Z,9.302952
2022-12-03T11:04:56.928Z,9.303017
2022-12-03T11:05:56.878Z,9.303046
2022-12-03T11:06:56.756Z,9.302976
2022-12-03T11:07:59.643Z,9.303066
2022-12-03T11:09:08.350Z,9.302980
2022-12-03T11:10:34.053Z,9.303058
2022-12-03T11:10:56.850Z,9.302837
2022-12-03T11:11:56.779Z,9.303022
2022-12-03T11:13:32.432Z,9.302967
2022-12-03T11:14:02.143Z,9.302835
2022-12-03T11:14:57.187Z,9.302691
2022-12-03T11:16:02.004Z,9.302642
2022-12-03T11:17:05.298Z,9.302710
2022-12-03T11:17:58.776Z,9.302728
2022-12-03T11:18:57.130Z,9.302860
2022-12-03T11:20:12.212Z,9.302908
2022-12-03T11:21:23.535Z,9.303056
2022-12-03T11:22:06.657Z,9.303003
2022-12-03T11:28:46.878Z,9.303033
2022-12-03T11:30:34.272Z,9.303077
2022-12-03T11:30:41.772Z,9.303077
2022-12-03T11:31:58.704Z,9.303034
2022-12-03T11:51:06.498Z,9.303156
2022-12-03T11:53:23.072Z,9.303162
2022-12-03T11:53:28.768Z,9.303162
2022-12-03T11:54:47.215Z,9.303135
2022-12-03T11:55:34.103Z,9.303074
2022-12-03T11:56:35.590Z,9.302925
2022-12-03T11:57:28.713Z,9.302856
2022-12-03T11:58:27.919Z,9.302802
2022-12-03T11:59:27.664Z,9.303031
2022-12-03T12:00:27.701Z,9.303103
2022-12-03T12:01:28.740Z,9.303025
2022-12-03T12:02:27.946Z,9.303115
2022-12-03T12:03:28.131Z,9.303320
2022-12-03T12:04:29.060Z,9.303108
2022-12-03T12:05:44.116Z,9.303149
2022-12-03T12:06:30.272Z,9.302997
2022-12-03T12:07:28.724Z,9.303067
2022-12-03T12:08:28.112Z,9.302955
2022-12-03T12:09:33.575Z,9.302960
2022-12-03T12:10:33.782Z,9.303082
2022-12-03T12:11:42.596Z,9.303118
2022-12-03T12:12:27.780Z,9.303139
2022-12-03T12:13:27.916Z,9.303129
2022-12-03T12:14:34.749Z,9.303032
2022-12-03T12:16:02.086Z,9.302890
2022-12-03T12:17:08.855Z,9.302808
2022-12-03T12:17:36.278Z,9.303472
2022-12-03T12:19:02.329Z,9.303047
2022-12-03T12:19:30.075Z,9.303023
2022-12-03T12:21:00.381Z,9.302776
2022-12-03T12:21:29.543Z,9.303001
2022-12-03T12:22:28.438Z,9.302933
2022-12-03T12:23:28.235Z,9.302953
2022-12-03T12:24:29.828Z,9.302918
2022-12-03T12:25:53.727Z,9.303354
2022-12-03T12:26:30.633Z,9.303269
2022-12-03T12:27:27.528Z,9.303180
2022-12-03T12:28:27.951Z,9.303094
2022-12-03T12:29:28.183Z,9.303130
2022-12-03T12:30:27.893Z,9.303192
2022-12-03T12:31:28.406Z,9.303199
2022-12-03T12:32:28.160Z,9.302911
2022-12-03T12:33:27.236Z,9.302907
2022-12-03T12:34:27.367Z,9.303229
2022-12-03T12:35:27.512Z,9.302997
2022-12-03T12:36:32.743Z,9.302985
2022-12-03T12:37:29.136Z,9.303021
2022-12-03T12:38:27.473Z,9.303007
2022-12-03T12:39:27.644Z,9.302903
2022-12-03T12:40:27.727Z,9.303096
2022-12-03T12:41:36.716Z,9.303093
2022-12-03T12:43:12.634Z,9.303013
2022-12-03T12:43:28.102Z,9.302994
2022-12-03T12:45:26.584Z,9.303117
2022-12-03T12:47:47.392Z,9.303117
2022-12-03T12:48:13.291Z,9.303117
2022-12-03T12:48:56.516Z,9.302926
2022-12-03T12:50:01.767Z,9.302853
2022-12-03T12:51:05.632Z,9.302915
2022-12-03T12:52:04.749Z,9.302650
2022-12-03T12:52:51.577Z,9.302840
2022-12-03T12:54:00.843Z,9.302812
2022-12-03T12:54:52.703Z,9.303041
2022-12-03T12:55:51.558Z,9.303073
2022-12-03T12:56:51.210Z,9.303228
2022-12-03T12:57:51.206Z,9.303219
2022-12-03T12:58:51.373Z,9.303130
2022-12-03T12:59:52.219Z,9.303088
2022-12-03T13:00:51.855Z,9.303226
2022-12-03T13:16:01.978Z,9.303017
2022-12-03T13:17:01.876Z,9.303101
2022-12-03T13:18:01.834Z,9.303081
2022-12-03T13:19:01.771Z,9.302691
2022-12-03T13:20:07.772Z,9.302987
2022-12-03T13:21:02.655Z,9.303088
2022-12-03T13:22:01.911Z,9.302991
2022-12-03T13:23:02.822Z,9.302979
2022-12-03T13:24:01.909Z,9.302958
2022-12-03T13:25:01.594Z,9.302983
2022-12-03T13:26:38.710Z,9.302963
2022-12-03T13:27:05.852Z,9.303077
2022-12-03T13:28:01.963Z,9.302959
2022-12-03T13:29:11.963Z,9.302938
2022-12-03T13:30:01.921Z,9.302939
2022-12-03T13:31:01.777Z,9.302936
2022-12-03T13:32:01.716Z,9.303051
2022-12-03T13:33:01.737Z,9.303124
2022-12-03T13:34:01.612Z,9.303088
2022-12-03T13:35:01.695Z,9.303187
2022-12-03T13:36:03.555Z,9.303098
2022-12-03T13:37:01.550Z,9.303103
2022-12-03T13:38:07.498Z,9.303045
2022-12-03T13:39:01.512Z,9.303046
2022-12-03T13:40:01.722Z,9.303073
2022-12-03T13:41:01.527Z,9.303020
2022-12-03T13:42:01.641Z,9.303150
2022-12-03T13:43:01.749Z,9.303063
2022-12-03T13:44:01.520Z,9.302991
2022-12-03T13:45:02.659Z,9.303041
2022-12-03T13:46:01.551Z,9.303128
2022-12-03T13:47:01.493Z,9.303109
2022-12-03T13:48:03.355Z,9.302991
2022-12-03T13:49:02.188Z,9.302985
2022-12-03T13:50:03.079Z,9.302979
2022-12-03T13:51:01.647Z,9.303030
2022-12-03T13:56:37.817Z,9.303132
2022-12-03T14:03:24.929Z,9.303391
2022-12-03T14:04:25.025Z,9.303417
2022-12-03T14:05:24.701Z,9.303372
2022-12-03T14:06:24.618Z,9.303343
2022-12-03T14:07:27.252Z,9.303386
2022-12-03T14:08:24.799Z,9.303333
2022-12-03T14:09:28.593Z,9.303157
2022-12-03T14:10:24.623Z,9.303135
2022-12-03T14:11:28.693Z,9.303204
2022-12-03T14:12:25.260Z,9.303251
2022-12-03T14:13:24.599Z,9.303305
2022-12-03T14:14:24.587Z,9.303181
2022-12-03T14:15:25.227Z,9.303148
2022-12-03T14:16:28.584Z,9.303061
2022-12-03T14:17:25.393Z,9.303125